createdAt,value
2018-01-08T00:02:18.766Z,7.10
2018-01-08T00:04:47.229Z,7.10
2018-01-08T00:07:15.383Z,7.10
2018-01-08T00:09:43.570Z,7.10
2018-01-08T00:12:11.437Z,7.10
2018-01-08T00:14:39.322Z,7.10
2018-01-08T00:17:07.162Z,7.10
2018-01-08T00:19:36.845Z,7.10
2018-01-08T00:22:05.241Z,7.10
2018-01-08T00:24:34.333Z,7.10
2018-01-08T00:27:03.261Z,7.10
2018-01-08T00:29:31.268Z,7.10
2018-01-08T00:31:59.877Z,7.10
2018-01-08T00:34:28.509Z,7.10
2018-01-08T00:36:57.629Z,7.10
2018-01-08T00:39:25.761Z,7.10
2018-01-08T00:41:54.658Z,7.10
2018-01-08T00:44:23.502Z,7.10
2018-01-08T00:46:53.589Z,7.10
2018-01-08T00:49:22.455Z,7.10
2018-01-08T00:51:50.710Z,7.10
2018-01-08T00:54:18.941Z,7.10
2018-01-08T00:56:47.166Z,7.10
2018-01-08T00:59:15.615Z,7.10
2018-01-08T01:01:43.398Z,7.10
2018-01-08T01:04:12.166Z,7.00
2018-01-08T01:06:40.482Z,7.00
2018-01-08T01:09:08.789Z,7.10
2018-01-08T01:11:37.938Z,7.00
2018-01-08T01:14:07.569Z,7.00
2018-01-08T01:16:35.725Z,7.00
2018-01-08T01:19:04.025Z,7.00
2018-01-08T01:21:32.417Z,7.00
2018-01-08T01:24:01.378Z,7.00
2018-01-08T01:26:30.363Z,7.00
2018-01-08T01:28:58.791Z,7.00
2018-01-08T01:31:27.619Z,7.00
2018-01-08T01:33:56.012Z,7.00
2018-01-08T01:36:24.048Z,7.00
2018-01-08T01:38:52.448Z,7.00
2018-01-08T01:41:21.265Z,7.00
2018-01-08T01:43:50.357Z,7.00
2018-01-08T01:46:18.419Z,7.00
2018-01-08T01:48:47.161Z,6.90
2018-01-08T01:51:15.935Z,6.90
2018-01-08T01:53:44.601Z,6.90
2018-01-08T01:56:13.753Z,6.90
2018-01-08T01:58:42.186Z,6.90
2018-01-08T02:01:11.232Z,6.90
2018-01-08T02:03:39.720Z,6.90
2018-01-08T02:06:07.465Z,6.90
2018-01-08T02:08:36.403Z,6.90
2018-01-08T02:11:05.295Z,6.90
2018-01-08T02:13:33.612Z,6.90
2018-01-08T02:16:03.122Z,6.90
2018-01-08T02:18:30.955Z,7.00
2018-01-08T02:20:59.759Z,6.90
2018-01-08T02:23:27.556Z,6.90
2018-01-08T02:25:56.488Z,6.90
2018-01-08T02:28:24.567Z,6.90
2018-01-08T02:30:53.377Z,6.90
2018-01-08T02:33:21.393Z,6.90
2018-01-08T02:35:50.366Z,6.90
2018-01-08T02:38:18.337Z,6.90
2018-01-08T02:40:47.122Z,7.00
2018-01-08T02:43:15.865Z,7.00
2018-01-08T02:45:45.007Z,7.00
2018-01-08T02:48:13.472Z,7.00
2018-01-08T02:50:41.706Z,7.00
2018-01-08T02:53:10.592Z,7.00
2018-01-08T02:55:38.741Z,7.00
2018-01-08T02:58:07.823Z,7.00
2018-01-08T03:00:35.552Z,7.00
2018-01-08T03:03:05.668Z,7.00
2018-01-08T03:05:34.655Z,7.00
2018-01-08T03:08:03.500Z,7.00
2018-01-08T03:10:31.882Z,7.00
2018-01-08T03:12:59.867Z,7.10
2018-01-08T03:15:28.858Z,7.00
2018-01-08T03:17:57.300Z,7.00
2018-01-08T03:20:25.512Z,7.00
2018-01-08T03:22:53.559Z,7.00
2018-01-08T03:25:22.536Z,7.10
2018-01-08T03:27:50.628Z,7.10
2018-01-08T03:30:19.754Z,7.10
2018-01-08T03:32:48.731Z,7.10
2018-01-08T03:35:17.546Z,7.10
2018-01-08T03:37:46.438Z,7.10
2018-01-08T03:40:15.950Z,7.10
2018-01-08T03:42:43.997Z,7.10
2018-01-08T03:45:12.946Z,7.10
2018-01-08T03:47:41.128Z,7.10
2018-01-08T03:50:09.088Z,7.10
2018-01-08T03:52:38.166Z,7.10
2018-01-08T03:55:06.423Z,7.10
2018-01-08T03:57:34.706Z,7.10
2018-01-08T04:00:02.978Z,7.00
2018-01-08T04:02:31.359Z,7.00
2018-01-08T04:05:00.434Z,7.10
2018-01-08T04:07:29.299Z,7.10
2018-01-08T04:09:57.303Z,7.10
2018-01-08T04:12:26.086Z,7.10
2018-01-08T04:14:55.038Z,7.10
2018-01-08T04:17:22.967Z,7.10
2018-01-08T04:19:52.017Z,7.10
2018-01-08T04:22:20.117Z,7.10
2018-01-08T04:24:48.720Z,7.10
2018-01-08T04:27:17.523Z,7.10
2018-01-08T04:29:46.468Z,7.10
2018-01-08T04:32:15.033Z,7.10
2018-01-08T04:34:43.648Z,7.00
2018-01-08T04:37:12.991Z,7.10
2018-01-08T04:39:40.856Z,7.10
2018-01-08T04:42:09.847Z,7.10
2018-01-08T04:44:38.230Z,7.10
2018-01-08T04:47:06.218Z,7.10
2018-01-08T04:49:35.348Z,7.10
2018-01-08T04:52:04.245Z,7.00
2018-01-08T04:54:32.379Z,7.10
2018-01-08T04:57:01.473Z,7.00
2018-01-08T04:59:29.427Z,7.00
2018-01-08T05:01:57.639Z,7.00
2018-01-08T05:04:26.437Z,7.00
2018-01-08T05:06:55.488Z,7.00
2018-01-08T05:09:23.349Z,7.00
2018-01-08T05:11:52.507Z,7.00
2018-01-08T05:14:22.336Z,7.00
2018-01-08T05:16:50.638Z,7.00
2018-01-08T05:19:18.752Z,7.00
2018-01-08T05:21:47.859Z,7.00
2018-01-08T05:24:16.095Z,7.00
2018-01-08T05:26:44.079Z,7.00
2018-01-08T05:29:13.063Z,7.00
2018-01-08T05:31:41.698Z,7.00
2018-01-08T05:34:12.316Z,7.10
2018-01-08T05:36:41.597Z,7.00
2018-01-08T05:39:11.097Z,7.00
2018-01-08T05:41:39.738Z,7.00
2018-01-08T05:44:09.118Z,7.00
2018-01-08T05:46:38.127Z,7.10
2018-01-08T05:49:07.718Z,7.10
2018-01-08T05:51:35.822Z,7.10
2018-01-08T05:54:04.008Z,7.10
2018-01-08T05:56:32.096Z,7.10
2018-01-08T05:59:01.458Z,7.10
2018-01-08T06:01:30.457Z,7.10
2018-01-08T06:03:58.602Z,7.00
2018-01-08T06:06:26.729Z,7.10
2018-01-08T06:08:54.992Z,7.10
2018-01-08T06:11:23.194Z,7.00
2018-01-08T06:13:51.671Z,7.10
2018-01-08T06:16:20.359Z,7.00
2018-01-08T06:18:49.437Z,7.00
2018-01-08T06:21:18.191Z,7.00
2018-01-08T06:23:46.921Z,7.00
2018-01-08T06:26:15.524Z,7.00
2018-01-08T06:28:43.550Z,7.00
2018-01-08T06:31:12.646Z,7.00
2018-01-08T06:33:41.787Z,7.10
2018-01-08T06:36:09.900Z,7.10
2018-01-08T06:38:38.436Z,7.10
2018-01-08T06:41:06.400Z,7.00
2018-01-08T06:43:36.096Z,7.10
2018-01-08T06:46:04.706Z,7.00
2018-01-08T06:48:32.695Z,7.00
2018-01-08T06:51:02.840Z,7.00
2018-01-08T06:53:31.826Z,7.00
2018-01-08T06:56:00.839Z,7.00
2018-01-08T06:58:28.889Z,6.90
2018-01-08T07:00:57.798Z,7.00
2018-01-08T07:03:26.405Z,7.00
2018-01-08T07:05:56.045Z,7.00
2018-01-08T07:08:24.133Z,6.90
2018-01-08T07:10:52.447Z,7.00
2018-01-08T07:13:20.674Z,7.00
2018-01-08T07:15:48.769Z,7.00
2018-01-08T07:18:17.510Z,6.90
2018-01-08T07:20:45.397Z,6.90
2018-01-08T07:23:13.205Z,6.90
2018-01-08T07:25:41.145Z,6.90
2018-01-08T07:28:08.996Z,6.90
2018-01-08T07:30:37.098Z,6.90
2018-01-08T07:33:04.921Z,6.90
2018-01-08T07:35:32.652Z,6.90
2018-01-08T07:38:01.405Z,6.80
2018-01-08T07:40:29.697Z,6.80
2018-01-08T07:42:58.472Z,6.80
2018-01-08T07:45:27.256Z,6.80
2018-01-08T07:47:55.844Z,6.80
2018-01-08T07:50:24.567Z,6.80
2018-01-08T07:52:53.569Z,6.80
2018-01-08T07:55:22.588Z,6.80
2018-01-08T07:57:50.628Z,6.80
2018-01-08T08:00:19.565Z,6.80
2018-01-08T08:02:48.162Z,6.80
2018-01-08T08:05:17.062Z,6.90
2018-01-08T08:07:46.482Z,6.80
2018-01-08T08:10:14.506Z,6.80
2018-01-08T08:12:43.212Z,6.90
2018-01-08T08:15:11.211Z,6.90
2018-01-08T08:17:40.233Z,6.90
2018-01-08T08:20:08.678Z,6.90
2018-01-08T08:22:37.020Z,6.90
2018-01-08T08:25:05.297Z,6.90
2018-01-08T08:27:33.182Z,6.90
2018-01-08T08:30:01.212Z,7.00
2018-01-08T08:32:29.224Z,7.00
2018-01-08T08:34:58.029Z,7.00
2018-01-08T08:37:26.979Z,7.00
2018-01-08T08:39:56.078Z,7.00
2018-01-08T08:42:23.816Z,7.00
2018-01-08T08:44:51.839Z,7.00
2018-01-08T08:47:20.019Z,7.10
2018-01-08T08:49:48.036Z,7.10
2018-01-08T08:52:16.280Z,7.10
2018-01-08T08:54:45.428Z,7.00
2018-01-08T08:57:14.583Z,7.10
2018-01-08T08:59:43.173Z,7.10
2018-01-08T09:02:12.076Z,7.10
2018-01-08T09:04:40.188Z,7.10
2018-01-08T09:07:08.080Z,7.10
2018-01-08T09:09:36.729Z,7.10
2018-01-08T09:12:04.535Z,7.10
2018-01-08T09:14:33.386Z,7.20
2018-01-08T09:17:01.381Z,7.20
2018-01-08T09:19:30.518Z,7.10
2018-01-08T09:21:58.617Z,7.10
2018-01-08T09:24:27.505Z,7.10
2018-01-08T09:26:55.664Z,7.10
2018-01-08T09:29:23.763Z,7.10
2018-01-08T09:31:51.812Z,7.10
2018-01-08T09:34:20.733Z,7.00
2018-01-08T09:36:49.322Z,7.00
2018-01-08T09:39:17.591Z,7.10
2018-01-08T09:41:46.471Z,7.00
2018-01-08T09:44:15.161Z,7.00
2018-01-08T09:46:43.967Z,7.00
2018-01-08T09:49:12.744Z,7.00
2018-01-08T09:51:40.765Z,7.00
2018-01-08T09:54:08.883Z,7.00
2018-01-08T09:56:36.669Z,7.00
2018-01-08T09:59:06.229Z,7.00
2018-01-08T10:01:34.236Z,7.00
2018-01-08T10:04:15.721Z,7.00
2018-01-08T10:06:56.201Z,7.10
2018-01-08T10:09:36.727Z,7.10
2018-01-08T10:12:16.448Z,7.10
2018-01-08T10:14:57.260Z,7.10
2018-01-08T10:17:38.220Z,7.10
2018-01-08T10:20:07.417Z,7.00
2018-01-08T10:22:35.304Z,7.00
2018-01-08T10:25:04.063Z,7.00
2018-01-08T10:27:32.845Z,7.00
2018-01-08T10:30:00.633Z,7.00
2018-01-08T10:32:28.341Z,7.10
2018-01-08T10:34:56.685Z,7.10
2018-01-08T10:37:25.495Z,7.10
2018-01-08T10:39:53.299Z,7.10
2018-01-08T10:42:26.749Z,7.10
2018-01-08T10:45:00.353Z,7.00
2018-01-08T10:47:33.891Z,7.00
2018-01-08T10:50:07.384Z,7.10
2018-01-08T10:52:36.433Z,6.90
2018-01-08T10:55:06.224Z,6.90
2018-01-08T10:57:34.964Z,6.90
2018-01-08T11:00:04.178Z,6.80
2018-01-08T11:02:38.565Z,6.80
2018-01-08T11:05:06.549Z,6.80
2018-01-08T11:07:34.310Z,6.80
2018-01-08T11:10:02.467Z,6.80
2018-01-08T11:12:30.385Z,6.90
2018-01-08T11:14:58.578Z,6.80
2018-01-08T11:17:26.461Z,6.90
2018-01-08T11:19:55.624Z,6.90
2018-01-08T11:22:23.613Z,6.90
2018-01-08T11:24:52.560Z,6.90
2018-01-08T11:27:21.493Z,7.00
2018-01-08T11:29:50.601Z,7.00
2018-01-08T11:32:19.285Z,7.10
2018-01-08T11:34:48.080Z,7.10
2018-01-08T11:37:17.451Z,7.10
2018-01-08T11:39:46.235Z,7.10
2018-01-08T11:42:14.441Z,7.10
2018-01-08T11:44:42.354Z,7.10
2018-01-08T11:47:10.454Z,7.10
2018-01-08T11:49:38.855Z,7.10
2018-01-08T11:52:07.350Z,7.10
2018-01-08T11:54:35.542Z,7.20
2018-01-08T11:57:03.499Z,7.10
2018-01-08T11:59:31.421Z,7.10
2018-01-08T12:01:59.639Z,7.10
2018-01-08T12:04:27.622Z,7.10
2018-01-08T12:06:55.494Z,7.20
2018-01-08T12:09:23.548Z,7.20
2018-01-08T12:11:51.561Z,7.10
2018-01-08T12:14:19.528Z,7.20
2018-01-08T12:16:48.149Z,7.30
2018-01-08T12:19:16.921Z,7.40
2018-01-08T12:21:45.782Z,7.50
2018-01-08T12:24:14.741Z,7.40
2018-01-08T12:26:43.309Z,7.40
2018-01-08T12:29:12.489Z,7.40
2018-01-08T12:31:41.330Z,7.40
2018-01-08T12:34:09.327Z,7.40
2018-01-08T12:36:37.417Z,7.50
2018-01-08T12:39:06.404Z,7.50
2018-01-08T12:41:34.424Z,7.50
2018-01-08T12:44:02.708Z,7.60
2018-01-08T12:46:30.969Z,7.60
2018-01-08T12:48:58.721Z,7.70
2018-01-08T12:51:28.113Z,7.80
2018-01-08T12:53:57.080Z,7.90
2018-01-08T12:56:24.987Z,7.80
2018-01-08T12:58:53.061Z,7.90
2018-01-08T13:01:21.034Z,7.90
2018-01-08T13:03:48.989Z,7.90
2018-01-08T13:06:17.116Z,8.00
2018-01-08T13:08:45.669Z,7.90
2018-01-08T13:11:13.413Z,8.00
2018-01-08T13:13:41.780Z,8.00
2018-01-08T13:16:09.548Z,7.90
2018-01-08T13:18:38.353Z,7.90
2018-01-08T13:21:07.132Z,7.80
2018-01-08T13:23:34.937Z,7.80
2018-01-08T13:26:02.809Z,7.90
2018-01-08T13:28:30.600Z,7.90
2018-01-08T13:31:00.894Z,7.90
2018-01-08T13:33:28.591Z,7.90
2018-01-08T13:35:57.374Z,8.00
2018-01-08T13:38:26.267Z,8.10
2018-01-08T13:40:54.267Z,8.10
2018-01-08T13:43:22.203Z,8.20
2018-01-08T13:45:50.886Z,8.10
2018-01-08T13:48:19.386Z,8.20
2018-01-08T13:50:47.314Z,8.10
2018-01-08T13:53:15.154Z,8.20
2018-01-08T13:55:43.490Z,8.20
2018-01-08T13:58:12.577Z,8.20
2018-01-08T14:00:41.298Z,8.20
2018-01-08T14:03:09.441Z,8.10
2018-01-08T14:05:38.177Z,8.20
2018-01-08T14:08:06.618Z,8.20
2018-01-08T14:10:34.834Z,8.10
2018-01-08T14:13:02.875Z,8.20
2018-01-08T14:15:30.758Z,8.20
2018-01-08T14:17:58.625Z,8.20
2018-01-08T14:20:26.581Z,8.40
2018-01-08T14:22:55.693Z,8.30
2018-01-08T14:25:23.764Z,8.30
2018-01-08T14:27:51.852Z,8.20
2018-01-08T14:30:19.765Z,8.10
2018-01-08T14:32:47.765Z,8.10
2018-01-08T14:35:15.911Z,7.90
2018-01-08T14:37:44.614Z,7.80
2018-01-08T14:40:12.790Z,7.70
2018-01-08T14:42:41.868Z,7.70
2018-01-08T14:45:10.475Z,7.70
2018-01-08T14:47:38.312Z,7.70
2018-01-08T14:50:06.159Z,7.60
2018-01-08T14:52:35.094Z,7.40
2018-01-08T14:55:04.251Z,7.40
2018-01-08T14:57:33.018Z,7.40
2018-01-08T15:00:01.241Z,7.40
2018-01-08T15:02:30.664Z,7.40
2018-01-08T15:05:00.064Z,7.40
2018-01-08T15:07:28.271Z,7.40
2018-01-08T15:09:56.486Z,7.40
2018-01-08T15:12:24.637Z,7.40
2018-01-08T15:14:53.553Z,7.30
2018-01-08T15:17:22.577Z,7.30
2018-01-08T15:19:50.834Z,7.30
2018-01-08T15:22:19.367Z,7.30
2018-01-08T15:24:48.898Z,7.30
2018-01-08T15:27:16.916Z,7.30
2018-01-08T15:29:45.769Z,7.40
2018-01-08T15:32:14.588Z,7.40
2018-01-08T15:34:43.664Z,7.30
2018-01-08T15:37:12.276Z,7.30
2018-01-08T15:39:40.085Z,7.30
2018-01-08T15:42:08.874Z,7.20
2018-01-08T15:44:36.769Z,7.20
2018-01-08T15:47:04.614Z,7.30
2018-01-08T15:49:33.479Z,7.30
2018-01-08T15:52:02.703Z,7.30
2018-01-08T15:54:31.756Z,7.20
2018-01-08T15:56:59.744Z,7.20
2018-01-08T15:59:28.570Z,7.20
2018-01-08T16:01:56.499Z,7.20
2018-01-08T16:04:25.401Z,7.10
2018-01-08T16:06:54.571Z,7.10
2018-01-08T16:09:22.890Z,7.10
2018-01-08T16:11:52.102Z,7.10
2018-01-08T16:14:21.070Z,7.00
2018-01-08T16:16:49.293Z,7.00
2018-01-08T16:19:17.640Z,6.90
2018-01-08T16:21:45.660Z,6.90
2018-01-08T16:24:13.462Z,7.00
2018-01-08T16:26:41.737Z,7.00
2018-01-08T16:29:09.549Z,7.00
2018-01-08T16:31:37.424Z,6.90
2018-01-08T16:34:05.251Z,6.90
2018-01-08T16:36:33.994Z,6.90
2018-01-08T16:39:03.333Z,6.90
2018-01-08T16:41:31.679Z,6.90
2018-01-08T16:44:00.418Z,6.90
2018-01-08T16:46:29.000Z,6.90
2018-01-08T16:48:57.881Z,6.80
2018-01-08T16:51:26.633Z,6.80
2018-01-08T16:53:55.504Z,6.80
2018-01-08T16:56:23.717Z,6.80
2018-01-08T16:58:52.429Z,6.80
2018-01-08T17:01:21.624Z,6.80
2018-01-08T17:03:56.488Z,6.80
2018-01-08T17:06:24.278Z,6.80
2018-01-08T17:08:52.775Z,6.80
2018-01-08T17:11:21.951Z,6.80
2018-01-08T17:13:51.725Z,6.80
2018-01-08T17:16:19.996Z,6.80
2018-01-08T17:18:48.125Z,6.90
2018-01-08T17:21:15.881Z,6.90
2018-01-08T17:23:43.673Z,6.90
2018-01-08T17:26:11.562Z,6.80
2018-01-08T17:28:39.628Z,6.80
2018-01-08T17:31:07.716Z,6.90
2018-01-08T17:33:35.720Z,6.80
2018-01-08T17:36:04.607Z,6.80
2018-01-08T17:38:33.402Z,6.80
2018-01-08T17:41:01.166Z,6.80
2018-01-08T17:43:29.378Z,6.90
2018-01-08T17:45:58.405Z,6.80
2018-01-08T17:48:26.793Z,6.80
2018-01-08T17:50:54.751Z,6.80
2018-01-08T17:53:23.061Z,6.80
2018-01-08T17:55:51.112Z,6.80
2018-01-08T17:58:19.838Z,6.90
2018-01-08T18:00:48.081Z,6.90
2018-01-08T18:03:16.968Z,6.90
2018-01-08T18:05:45.817Z,6.80
2018-01-08T18:08:13.683Z,6.80
2018-01-08T18:10:42.653Z,6.90
2018-01-08T18:13:11.516Z,6.90
2018-01-08T18:15:39.442Z,6.90
2018-01-08T18:18:07.466Z,6.90
2018-01-08T18:20:35.201Z,6.90
2018-01-08T18:23:03.758Z,6.90
2018-01-08T18:25:32.969Z,7.00
2018-01-08T18:28:01.274Z,7.00
2018-01-08T18:30:30.367Z,7.00
2018-01-08T18:32:59.086Z,6.90
2018-01-08T18:35:27.456Z,6.90
2018-01-08T18:37:55.362Z,6.90
2018-01-08T18:40:23.361Z,6.80
2018-01-08T18:42:52.056Z,6.90
2018-01-08T18:45:20.159Z,6.90
2018-01-08T18:47:48.108Z,6.90
2018-01-08T18:50:16.137Z,6.90
2018-01-08T18:52:44.010Z,6.90
2018-01-08T18:55:12.646Z,6.90
2018-01-08T18:57:40.619Z,6.90
2018-01-08T19:00:08.509Z,7.00
2018-01-08T19:02:36.382Z,6.90
2018-01-08T19:05:04.455Z,6.90
2018-01-08T19:07:33.022Z,6.80
2018-01-08T19:10:00.977Z,6.80
2018-01-08T19:12:28.917Z,6.90
2018-01-08T19:14:56.828Z,6.80
2018-01-08T19:17:24.588Z,6.80
2018-01-08T19:19:52.531Z,6.80
2018-01-08T19:22:20.443Z,6.70
2018-01-08T19:24:48.273Z,6.70
2018-01-08T19:27:16.173Z,6.70
2018-01-08T19:29:44.025Z,6.70
2018-01-08T19:32:11.976Z,6.70
2018-01-08T19:34:39.773Z,6.70
2018-01-08T19:37:07.571Z,6.70
2018-01-08T19:39:35.528Z,6.70
2018-01-08T19:42:04.260Z,6.70
2018-01-08T19:44:32.477Z,6.70
2018-01-08T19:47:01.183Z,6.70
2018-01-08T19:49:29.297Z,6.70
2018-01-08T19:51:57.802Z,6.70
2018-01-08T19:54:25.754Z,6.70
2018-01-08T19:56:53.682Z,6.60
2018-01-08T19:59:21.725Z,6.70
2018-01-08T20:01:50.436Z,6.60
2018-01-08T20:04:18.327Z,6.60
2018-01-08T20:06:46.449Z,6.70
2018-01-08T20:09:15.041Z,6.60
2018-01-08T20:11:43.749Z,6.60
2018-01-08T20:14:11.797Z,6.60
2018-01-08T20:16:40.641Z,6.60
2018-01-08T20:19:08.673Z,6.60
2018-01-08T20:21:36.537Z,6.50
2018-01-08T20:24:04.656Z,6.50
2018-01-08T20:26:32.836Z,6.50
2018-01-08T20:29:00.688Z,6.50
2018-01-08T20:31:28.719Z,6.50
2018-01-08T20:33:56.535Z,6.50
2018-01-08T20:36:24.398Z,6.50
2018-01-08T20:38:52.467Z,6.50
2018-01-08T20:41:20.400Z,6.40
2018-01-08T20:43:48.393Z,6.50
2018-01-08T20:46:16.088Z,6.40
2018-01-08T20:48:43.939Z,6.30
2018-01-08T20:51:11.824Z,6.40
2018-01-08T20:53:40.617Z,6.30
2018-01-08T20:56:09.413Z,6.30
2018-01-08T20:58:38.463Z,6.20
2018-01-08T21:01:06.554Z,6.20
2018-01-08T21:03:34.627Z,6.20
2018-01-08T21:06:02.433Z,6.20
2018-01-08T21:08:30.354Z,6.10
2018-01-08T21:10:59.132Z,6.10
2018-01-08T21:13:27.096Z,6.10
2018-01-08T21:15:54.906Z,6.10
2018-01-08T21:18:23.614Z,6.10
2018-01-08T21:20:51.374Z,6.10
2018-01-08T21:23:19.219Z,6.10
2018-01-08T21:25:48.109Z,6.10
2018-01-08T21:28:16.812Z,6.10
2018-01-08T21:30:44.609Z,6.10
2018-01-08T21:33:12.516Z,6.10
2018-01-08T21:35:41.162Z,6.00
2018-01-08T21:38:09.201Z,6.00
2018-01-08T21:40:37.175Z,5.90
2018-01-08T21:43:05.307Z,5.90
2018-01-08T21:45:34.132Z,5.90
2018-01-08T21:48:03.144Z,5.90
2018-01-08T21:50:32.240Z,5.90
2018-01-08T21:53:00.892Z,5.90
2018-01-08T21:55:28.635Z,5.90
2018-01-08T21:57:57.168Z,5.80
2018-01-08T22:00:25.169Z,5.80
2018-01-08T22:02:53.029Z,5.80
2018-01-08T22:05:21.575Z,5.80
2018-01-08T22:07:49.418Z,5.80
2018-01-08T22:10:17.539Z,5.80
2018-01-08T22:12:45.443Z,5.80
2018-01-08T22:15:14.227Z,5.80
2018-01-08T22:17:42.704Z,5.80
2018-01-08T22:20:10.819Z,5.80
2018-01-08T22:22:38.710Z,5.80
2018-01-08T22:25:06.595Z,5.80
2018-01-08T22:27:35.320Z,5.90
2018-01-08T22:30:03.335Z,5.80
2018-01-08T22:32:31.178Z,5.80
2018-01-08T22:34:58.995Z,5.80
2018-01-08T22:37:26.834Z,5.80
2018-01-08T22:39:54.636Z,5.80
2018-01-08T22:42:23.380Z,5.80
2018-01-08T22:44:51.354Z,5.80
2018-01-08T22:47:19.380Z,5.70
2018-01-08T22:49:47.238Z,5.80
2018-01-08T22:52:15.887Z,5.90
2018-01-08T22:54:44.874Z,5.90
2018-01-08T22:57:13.030Z,5.80
2018-01-08T22:59:41.175Z,5.80
2018-01-08T23:02:08.945Z,5.70
2018-01-08T23:04:37.001Z,5.70
2018-01-08T23:07:05.068Z,5.70
2018-01-08T23:09:33.124Z,5.80
2018-01-08T23:12:01.631Z,5.80
2018-01-08T23:14:29.461Z,5.80
2018-01-08T23:16:57.390Z,5.80
2018-01-08T23:19:25.162Z,5.90
2018-01-08T23:21:53.093Z,5.80
2018-01-08T23:24:21.111Z,5.80
2018-01-08T23:26:48.958Z,5.80
2018-01-08T23:29:16.967Z,5.80
2018-01-08T23:31:44.945Z,5.80
2018-01-08T23:34:13.626Z,5.80
2018-01-08T23:36:42.392Z,5.80
2018-01-08T23:39:10.209Z,5.80
2018-01-08T23:41:38.196Z,5.90
2018-01-08T23:44:06.115Z,6.00
2018-01-08T23:46:34.755Z,6.00
2018-01-08T23:49:03.489Z,5.90
2018-01-08T23:51:32.260Z,6.00
2018-01-08T23:54:00.153Z,5.90
2018-01-08T23:56:29.038Z,5.90
2018-01-08T23:58:57.810Z,6.00
